CA-0024 weather

CLOSED Anderson Ranch Airport
British Columbia, Canada

Public forecast

Using degrees Celsius for public forecast. Weather courtesy of forecast.io.

Closest aviation weather report (METAR) to Anderson Ranch Airport

Closest report is Prince George Airport, 41.1 nm (76.2 km) NE. Retrieved 2019/10/23 20:00 UTC (42 minutes ago):

CYXS 232000Z AUTO 17010KT 9SM CLR 06/00 A3042 RMK SLP333

Closest aviation forecast (TAF) to Anderson Ranch Airport

Closest forecast is Prince George Airport, 41.1 nm (76.2 km) NE. Retrieved 2019/10/23 19:42 UTC (60 minutes ago):

TAF CYXS 231838Z 2319/2407 17006KT P6SM BKN180 FM232300 18008KT P6SM SCT025 OVC080 TEMPO 2323/2402 5SM -RA BR BKN020 OVC060 FM240200 18008KT P6SM -RA SCT010 BKN025 OVC040 TEMPO 2402/2407 3SM RA BR BKN008 OVC040 RMK FCST BASED ON AUTO OBS NXT FCST BY 240100Z